sensor_id;sensor_type;location;lat;lon;timestamp;temperature;humidity
52495;DHT22;38405;53.212;5.660;2023-04-12T00:01:28;7.30;99.90
52495;DHT22;38405;53.212;5.660;2023-04-12T00:03:54;7.30;99.90
52495;DHT22;38405;53.212;5.660;2023-04-12T00:06:19;7.30;99.90
52495;DHT22;38405;53.212;5.660;2023-04-12T00:09:00;7.40;99.90
52495;DHT22;38405;53.212;5.660;2023-04-12T00:11:26;7.40;99.90
52495;DHT22;38405;53.212;5.660;2023-04-12T00:13:56;7.40;99.90
52495;DHT22;38405;53.212;5.660;2023-04-12T00:16:22;7.40;99.90
52495;DHT22;38405;53.212;5.660;2023-04-12T00:18:49;7.50;99.90
52495;DHT22;38405;53.212;5.660;2023-04-12T00:21:16;7.50;99.90
52495;DHT22;38405;53.212;5.660;2023-04-12T00:23:47;7.60;99.90
52495;DHT22;38405;53.212;5.660;2023-04-12T00:26:14;7.60;99.90
52495;DHT22;38405;53.212;5.660;2023-04-12T00:28:41;7.60;99.90
52495;DHT22;38405;53.212;5.660;2023-04-12T00:31:07;7.60;99.90
52495;DHT22;38405;53.212;5.660;2023-04-12T00:33:33;7.70;99.90
52495;DHT22;38405;53.212;5.660;2023-04-12T00:35:59;7.90;99.90
52495;DHT22;38405;53.212;5.660;2023-04-12T00:38:28;7.80;99.90
52495;DHT22;38405;53.212;5.660;2023-04-12T00:40:54;7.80;99.90
52495;DHT22;38405;53.212;5.660;2023-04-12T00:43:20;7.90;99.90
52495;DHT22;38405;53.212;5.660;2023-04-12T00:45:46;8.00;99.90
52495;DHT22;38405;53.212;5.660;2023-04-12T00:48:15;7.80;99.90
52495;DHT22;38405;53.212;5.660;2023-04-12T00:50:41;7.80;99.90
52495;DHT22;38405;53.212;5.660;2023-04-12T00:53:12;7.90;99.90
52495;DHT22;38405;53.212;5.660;2023-04-12T00:55:43;7.90;99.90
52495;DHT22;38405;53.212;5.660;2023-04-12T00:58:08;7.90;99.90
52495;DHT22;38405;53.212;5.660;2023-04-12T01:00:34;7.90;99.90
52495;DHT22;38405;53.212;5.660;2023-04-12T01:03:00;7.90;99.90
52495;DHT22;38405;53.212;5.660;2023-04-12T01:05:28;7.90;99.90
52495;DHT22;38405;53.212;5.660;2023-04-12T01:10:59;7.80;99.90
52495;DHT22;38405;53.212;5.660;2023-04-12T01:13:31;7.90;99.90
52495;DHT22;38405;53.212;5.660;2023-04-12T01:18:40;7.90;99.90
52495;DHT22;38405;53.212;5.660;2023-04-12T01:21:15;7.90;99.90
52495;DHT22;38405;53.212;5.660;2023-04-12T01:26:46;8.00;99.90
52495;DHT22;38405;53.212;5.660;2023-04-12T01:29:18;7.90;99.90
52495;DHT22;38405;53.212;5.660;2023-04-12T01:31:58;7.90;99.90
52495;DHT22;38405;53.212;5.660;2023-04-12T01:34:28;7.90;99.90
52495;DHT22;38405;53.212;5.660;2023-04-12T01:36:54;8.00;99.90
52495;DHT22;38405;53.212;5.660;2023-04-12T01:39:22;7.90;99.90
52495;DHT22;38405;53.212;5.660;2023-04-12T01:41:47;7.90;99.90
52495;DHT22;38405;53.212;5.660;2023-04-12T01:44:17;7.90;99.90
52495;DHT22;38405;53.212;5.660;2023-04-12T01:46:46;7.90;99.90
52495;DHT22;38405;53.212;5.660;2023-04-12T01:49:13;7.90;99.90
52495;DHT22;38405;53.212;5.660;2023-04-12T01:52:08;7.80;99.90
52495;DHT22;38405;53.212;5.660;2023-04-12T01:54:38;7.90;99.90
52495;DHT22;38405;53.212;5.660;2023-04-12T01:57:06;8.00;99.90
52495;DHT22;38405;53.212;5.660;2023-04-12T01:59:40;7.90;99.90
52495;DHT22;38405;53.212;5.660;2023-04-12T02:02:08;7.90;99.90
52495;DHT22;38405;53.212;5.660;2023-04-12T02:04:35;7.90;99.90
52495;DHT22;38405;53.212;5.660;2023-04-12T02:07:02;7.90;99.90
52495;DHT22;38405;53.212;5.660;2023-04-12T02:09:28;8.10;99.90
52495;DHT22;38405;53.212;5.660;2023-04-12T02:11:53;7.90;99.90
52495;DHT22;38405;53.212;5.660;2023-04-12T02:14:21;7.90;99.90
52495;DHT22;38405;53.212;5.660;2023-04-12T02:16:46;7.90;99.90
52495;DHT22;38405;53.212;5.660;2023-04-12T02:19:12;8.20;99.90
52495;DHT22;38405;53.212;5.660;2023-04-12T02:21:43;8.00;99.90
52495;DHT22;38405;53.212;5.660;2023-04-12T02:24:11;8.00;99.90
52495;DHT22;38405;53.212;5.660;2023-04-12T02:26:37;8.00;99.90
52495;DHT22;38405;53.212;5.660;2023-04-12T02:29:04;8.00;99.90
52495;DHT22;38405;53.212;5.660;2023-04-12T02:31:34;8.00;99.90
52495;DHT22;38405;53.212;5.660;2023-04-12T02:34:01;8.00;99.90
52495;DHT22;38405;53.212;5.660;2023-04-12T02:36:27;8.10;99.90
52495;DHT22;38405;53.212;5.660;2023-04-12T02:38:53;8.00;99.90
52495;DHT22;38405;53.212;5.660;2023-04-12T02:41:21;8.00;99.90
52495;DHT22;38405;53.212;5.660;2023-04-12T02:43:47;8.00;99.90
52495;DHT22;38405;53.212;5.660;2023-04-12T02:46:21;8.00;99.90
52495;DHT22;38405;53.212;5.660;2023-04-12T02:48:48;8.00;99.90
52495;DHT22;38405;53.212;5.660;2023-04-12T02:51:14;8.30;99.90
52495;DHT22;38405;53.212;5.660;2023-04-12T02:53:40;8.00;99.90
52495;DHT22;38405;53.212;5.660;2023-04-12T02:56:06;8.10;99.90
52495;DHT22;38405;53.212;5.660;2023-04-12T02:58:34;8.00;99.90
52495;DHT22;38405;53.212;5.660;2023-04-12T03:00:59;8.20;99.90
52495;DHT22;38405;53.212;5.660;2023-04-12T03:03:26;8.00;99.90
52495;DHT22;38405;53.212;5.660;2023-04-12T03:05:53;8.00;99.90
52495;DHT22;38405;53.212;5.660;2023-04-12T03:08:20;8.00;99.90
52495;DHT22;38405;53.212;5.660;2023-04-12T03:10:46;8.00;99.90
52495;DHT22;38405;53.212;5.660;2023-04-12T03:13:12;8.00;99.90
52495;DHT22;38405;53.212;5.660;2023-04-12T03:15:37;7.90;99.90
52495;DHT22;38405;53.212;5.660;2023-04-12T03:18:03;8.00;99.90
52495;DHT22;38405;53.212;5.660;2023-04-12T03:20:29;8.00;99.90
52495;DHT22;38405;53.212;5.660;2023-04-12T03:22:54;8.00;99.90
52495;DHT22;38405;53.212;5.660;2023-04-12T03:25:29;7.90;99.90
52495;DHT22;38405;53.212;5.660;2023-04-12T03:27:55;7.90;99.90
52495;DHT22;38405;53.212;5.660;2023-04-12T03:30:21;7.90;99.90
52495;DHT22;38405;53.212;5.660;2023-04-12T03:32:46;7.80;99.90
52495;DHT22;38405;53.212;5.660;2023-04-12T03:35:12;8.10;99.90
52495;DHT22;38405;53.212;5.660;2023-04-12T03:37:40;7.80;99.90
52495;DHT22;38405;53.212;5.660;2023-04-12T03:40:06;7.80;99.90
52495;DHT22;38405;53.212;5.660;2023-04-12T03:42:32;7.80;99.90
52495;DHT22;38405;53.212;5.660;2023-04-12T03:44:58;8.20;99.90
52495;DHT22;38405;53.212;5.660;2023-04-12T03:47:23;7.80;99.90
52495;DHT22;38405;53.212;5.660;2023-04-12T03:49:49;7.80;99.90
52495;DHT22;38405;53.212;5.660;2023-04-12T03:52:15;7.70;99.90
52495;DHT22;38405;53.212;5.660;2023-04-12T03:54:40;7.70;99.90
52495;DHT22;38405;53.212;5.660;2023-04-12T03:57:06;7.80;99.90
52495;DHT22;38405;53.212;5.660;2023-04-12T03:59:32;7.70;99.90
52495;DHT22;38405;53.212;5.660;2023-04-12T04:01:58;7.80;99.90
52495;DHT22;38405;53.212;5.660;2023-04-12T04:04:26;7.80;99.90
52495;DHT22;38405;53.212;5.660;2023-04-12T04:06:51;7.70;99.90
52495;DHT22;38405;53.212;5.660;2023-04-12T04:09:17;7.70;99.90
52495;DHT22;38405;53.212;5.660;2023-04-12T04:11:43;7.70;99.90
52495;DHT22;38405;53.212;5.660;2023-04-12T04:14:09;7.70;99.90
52495;DHT22;38405;53.212;5.660;2023-04-12T04:16:38;7.70;99.90
52495;DHT22;38405;53.212;5.660;2023-04-12T04:19:04;8.00;99.90
52495;DHT22;38405;53.212;5.660;2023-04-12T04:21:29;7.70;99.90
52495;DHT22;38405;53.212;5.660;2023-04-12T04:23:58;7.80;99.90
52495;DHT22;38405;53.212;5.660;2023-04-12T04:26:26;7.70;99.90
52495;DHT22;38405;53.212;5.660;2023-04-12T04:28:59;7.60;99.90
52495;DHT22;38405;53.212;5.660;2023-04-12T04:31:28;7.80;99.90
52495;DHT22;38405;53.212;5.660;2023-04-12T04:34:02;7.90;99.90
52495;DHT22;38405;53.212;5.660;2023-04-12T04:36:28;7.60;99.90
52495;DHT22;38405;53.212;5.660;2023-04-12T04:38:55;7.60;99.90
52495;DHT22;38405;53.212;5.660;2023-04-12T04:41:24;7.60;99.90
52495;DHT22;38405;53.212;5.660;2023-04-12T04:43:50;7.60;99.90
52495;DHT22;38405;53.212;5.660;2023-04-12T04:46:19;7.60;99.90
52495;DHT22;38405;53.212;5.660;2023-04-12T04:48:49;7.60;99.90
52495;DHT22;38405;53.212;5.660;2023-04-12T04:51:16;7.60;99.90
52495;DHT22;38405;53.212;5.660;2023-04-12T04:53:42;7.60;99.90
52495;DHT22;38405;53.212;5.660;2023-04-12T04:56:09;7.60;99.90
52495;DHT22;38405;53.212;5.660;2023-04-12T04:58:35;7.60;99.90
52495;DHT22;38405;53.212;5.660;2023-04-12T05:01:01;7.60;99.90
52495;DHT22;38405;53.212;5.660;2023-04-12T05:03:26;8.10;99.90
52495;DHT22;38405;53.212;5.660;2023-04-12T05:05:56;7.60;99.90
52495;DHT22;38405;53.212;5.660;2023-04-12T05:08:22;7.60;99.90
52495;DHT22;38405;53.212;5.660;2023-04-12T05:10:51;7.60;99.90
52495;DHT22;38405;53.212;5.660;2023-04-12T05:13:18;7.60;99.90
52495;DHT22;38405;53.212;5.660;2023-04-12T05:15:43;7.80;99.90
52495;DHT22;38405;53.212;5.660;2023-04-12T05:18:09;7.60;99.90
52495;DHT22;38405;53.212;5.660;2023-04-12T05:20:38;7.60;99.90
52495;DHT22;38405;53.212;5.660;2023-04-12T05:23:03;7.60;99.90
52495;DHT22;38405;53.212;5.660;2023-04-12T05:25:29;7.60;99.90
52495;DHT22;38405;53.212;5.660;2023-04-12T05:27:55;7.60;99.90
52495;DHT22;38405;53.212;5.660;2023-04-12T05:30:20;7.60;99.90
52495;DHT22;38405;53.212;5.660;2023-04-12T05:32:46;7.60;99.90
52495;DHT22;38405;53.212;5.660;2023-04-12T05:35:12;7.60;99.90
52495;DHT22;38405;53.212;5.660;2023-04-12T05:37:37;7.70;99.90
52495;DHT22;38405;53.212;5.660;2023-04-12T05:40:03;7.60;99.90
52495;DHT22;38405;53.212;5.660;2023-04-12T05:42:34;7.60;99.90
52495;DHT22;38405;53.212;5.660;2023-04-12T05:45:02;7.60;99.90
52495;DHT22;38405;53.212;5.660;2023-04-12T05:47:28;7.60;99.90
52495;DHT22;38405;53.212;5.660;2023-04-12T05:49:53;7.60;99.90
52495;DHT22;38405;53.212;5.660;2023-04-12T05:52:19;7.60;99.90
52495;DHT22;38405;53.212;5.660;2023-04-12T05:54:45;7.60;99.90
52495;DHT22;38405;53.212;5.660;2023-04-12T05:57:11;7.60;99.90
52495;DHT22;38405;53.212;5.660;2023-04-12T05:59:37;7.60;99.90
52495;DHT22;38405;53.212;5.660;2023-04-12T06:02:02;7.60;99.90
52495;DHT22;38405;53.212;5.660;2023-04-12T06:04:28;7.60;99.90
52495;DHT22;38405;53.212;5.660;2023-04-12T06:06:54;7.60;99.90
52495;DHT22;38405;53.212;5.660;2023-04-12T06:09:20;7.60;99.90
52495;DHT22;38405;53.212;5.660;2023-04-12T06:11:46;7.70;99.90
52495;DHT22;38405;53.212;5.660;2023-04-12T06:14:12;7.60;99.90
52495;DHT22;38405;53.212;5.660;2023-04-12T06:16:37;7.60;99.90
52495;DHT22;38405;53.212;5.660;2023-04-12T06:19:03;7.60;99.90
52495;DHT22;38405;53.212;5.660;2023-04-12T06:21:29;7.60;99.90
52495;DHT22;38405;53.212;5.660;2023-04-12T06:23:55;7.70;99.90
52495;DHT22;38405;53.212;5.660;2023-04-12T06:26:21;7.70;99.90
52495;DHT22;38405;53.212;5.660;2023-04-12T06:28:46;7.70;99.90
52495;DHT22;38405;53.212;5.660;2023-04-12T06:31:12;7.70;99.90
52495;DHT22;38405;53.212;5.660;2023-04-12T06:33:38;7.70;99.90
52495;DHT22;38405;53.212;5.660;2023-04-12T06:36:04;7.90;99.90
52495;DHT22;38405;53.212;5.660;2023-04-12T06:38:30;7.70;99.90
52495;DHT22;38405;53.212;5.660;2023-04-12T06:40:55;7.80;99.90
52495;DHT22;38405;53.212;5.660;2023-04-12T06:43:21;7.70;99.90
52495;DHT22;38405;53.212;5.660;2023-04-12T06:45:47;7.80;99.90
52495;DHT22;38405;53.212;5.660;2023-04-12T06:48:16;8.00;99.90
52495;DHT22;38405;53.212;5.660;2023-04-12T06:50:42;7.80;99.90
52495;DHT22;38405;53.212;5.660;2023-04-12T06:53:08;7.80;99.90
52495;DHT22;38405;53.212;5.660;2023-04-12T06:55:34;8.10;99.90
52495;DHT22;38405;53.212;5.660;2023-04-12T06:58:00;7.90;99.90
52495;DHT22;38405;53.212;5.660;2023-04-12T07:00:25;7.90;99.90
52495;DHT22;38405;53.212;5.660;2023-04-12T07:02:51;7.90;99.90
52495;DHT22;38405;53.212;5.660;2023-04-12T07:05:17;8.00;99.90
52495;DHT22;38405;53.212;5.660;2023-04-12T07:07:43;7.90;99.90
52495;DHT22;38405;53.212;5.660;2023-04-12T07:10:09;8.00;99.90
52495;DHT22;38405;53.212;5.660;2023-04-12T07:12:35;8.00;99.90
52495;DHT22;38405;53.212;5.660;2023-04-12T07:15:01;7.40;99.90
52495;DHT22;38405;53.212;5.660;2023-04-12T07:17:26;8.20;99.90
52495;DHT22;38405;53.212;5.660;2023-04-12T07:19:55;7.90;99.90
52495;DHT22;38405;53.212;5.660;2023-04-12T07:22:21;7.90;99.90
52495;DHT22;38405;53.212;5.660;2023-04-12T07:24:47;8.00;99.90
52495;DHT22;38405;53.212;5.660;2023-04-12T07:27:13;8.00;99.90
52495;DHT22;38405;53.212;5.660;2023-04-12T07:29:39;8.00;99.90
52495;DHT22;38405;53.212;5.660;2023-04-12T07:32:06;8.00;99.90
52495;DHT22;38405;53.212;5.660;2023-04-12T07:34:32;8.00;99.90
52495;DHT22;38405;53.212;5.660;2023-04-12T07:36:58;8.00;99.90
52495;DHT22;38405;53.212;5.660;2023-04-12T07:39:25;8.10;99.90
52495;DHT22;38405;53.212;5.660;2023-04-12T07:41:51;8.10;99.90
52495;DHT22;38405;53.212;5.660;2023-04-12T07:44:17;8.20;99.90
52495;DHT22;38405;53.212;5.660;2023-04-12T07:46:43;8.30;99.90
52495;DHT22;38405;53.212;5.660;2023-04-12T07:49:08;8.40;99.90
52495;DHT22;38405;53.212;5.660;2023-04-12T07:51:35;8.50;99.90
52495;DHT22;38405;53.212;5.660;2023-04-12T07:54:01;8.60;99.90
52495;DHT22;38405;53.212;5.660;2023-04-12T07:56:26;8.60;99.90
52495;DHT22;38405;53.212;5.660;2023-04-12T07:58:52;8.60;99.90
52495;DHT22;38405;53.212;5.660;2023-04-12T08:01:18;8.70;99.90
52495;DHT22;38405;53.212;5.660;2023-04-12T08:03:43;8.70;99.90
52495;DHT22;38405;53.212;5.660;2023-04-12T08:06:09;8.80;99.90
52495;DHT22;38405;53.212;5.660;2023-04-12T08:08:35;8.80;99.90
52495;DHT22;38405;53.212;5.660;2023-04-12T08:11:01;8.80;99.90
52495;DHT22;38405;53.212;5.660;2023-04-12T08:13:32;8.80;99.90
52495;DHT22;38405;53.212;5.660;2023-04-12T08:15:58;9.00;99.90
52495;DHT22;38405;53.212;5.660;2023-04-12T08:18:23;9.30;99.90
52495;DHT22;38405;53.212;5.660;2023-04-12T08:20:49;9.40;99.90
52495;DHT22;38405;53.212;5.660;2023-04-12T08:23:16;9.60;99.90
52495;DHT22;38405;53.212;5.660;2023-04-12T08:25:42;10.00;99.90
52495;DHT22;38405;53.212;5.660;2023-04-12T08:28:07;10.10;99.90
52495;DHT22;38405;53.212;5.660;2023-04-12T08:30:33;10.30;99.90
52495;DHT22;38405;53.212;5.660;2023-04-12T08:32:59;10.40;99.90
52495;DHT22;38405;53.212;5.660;2023-04-12T08:35:25;10.60;99.90
52495;DHT22;38405;53.212;5.660;2023-04-12T08:37:51;10.60;99.90
52495;DHT22;38405;53.212;5.660;2023-04-12T08:40:17;10.60;99.90
52495;DHT22;38405;53.212;5.660;2023-04-12T08:42:43;10.70;99.90
52495;DHT22;38405;53.212;5.660;2023-04-12T08:45:10;10.70;99.90
52495;DHT22;38405;53.212;5.660;2023-04-12T08:47:40;10.90;99.90
52495;DHT22;38405;53.212;5.660;2023-04-12T08:50:07;11.10;99.90
52495;DHT22;38405;53.212;5.660;2023-04-12T08:52:34;11.40;99.90
52495;DHT22;38405;53.212;5.660;2023-04-12T08:55:07;12.10;99.90
52495;DHT22;38405;53.212;5.660;2023-04-12T08:57:34;12.90;99.90
52495;DHT22;38405;53.212;5.660;2023-04-12T09:00:01;13.50;99.90
52495;DHT22;38405;53.212;5.660;2023-04-12T09:02:28;13.50;99.90
52495;DHT22;38405;53.212;5.660;2023-04-12T09:04:54;14.60;99.90
52495;DHT22;38405;53.212;5.660;2023-04-12T09:07:21;15.70;99.90
52495;DHT22;38405;53.212;5.660;2023-04-12T09:09:54;15.20;99.90
52495;DHT22;38405;53.212;5.660;2023-04-12T09:12:19;14.40;99.90
52495;DHT22;38405;53.212;5.660;2023-04-12T09:15:10;13.80;99.90
52495;DHT22;38405;53.212;5.660;2023-04-12T09:17:38;13.30;99.90
52495;DHT22;38405;53.212;5.660;2023-04-12T09:22:37;13.80;99.90
52495;DHT22;38405;53.212;5.660;2023-04-12T09:25:08;13.90;99.90
52495;DHT22;38405;53.212;5.660;2023-04-12T09:27:45;14.30;99.90
52495;DHT22;38405;53.212;5.660;2023-04-12T09:30:12;14.40;99.90
52495;DHT22;38405;53.212;5.660;2023-04-12T09:32:38;14.30;99.90
52495;DHT22;38405;53.212;5.660;2023-04-12T09:35:04;14.20;99.90
52495;DHT22;38405;53.212;5.660;2023-04-12T09:37:30;14.10;99.90
52495;DHT22;38405;53.212;5.660;2023-04-12T09:40:00;13.90;99.90
52495;DHT22;38405;53.212;5.660;2023-04-12T09:42:27;13.90;99.90
52495;DHT22;38405;53.212;5.660;2023-04-12T09:44:53;14.10;99.90
52495;DHT22;38405;53.212;5.660;2023-04-12T09:47:19;14.20;99.90
52495;DHT22;38405;53.212;5.660;2023-04-12T09:49:45;14.30;99.90
52495;DHT22;38405;53.212;5.660;2023-04-12T09:52:12;14.20;99.90
52495;DHT22;38405;53.212;5.660;2023-04-12T09:54:45;14.20;99.90
52495;DHT22;38405;53.212;5.660;2023-04-12T09:57:11;14.30;99.90
52495;DHT22;38405;53.212;5.660;2023-04-12T09:59:39;14.20;99.90
52495;DHT22;38405;53.212;5.660;2023-04-12T10:02:15;14.10;99.90
52495;DHT22;38405;53.212;5.660;2023-04-12T10:04:42;14.30;99.90
52495;DHT22;38405;53.212;5.660;2023-04-12T10:07:07;14.50;99.90
52495;DHT22;38405;53.212;5.660;2023-04-12T10:09:36;14.50;99.90
52495;DHT22;38405;53.212;5.660;2023-04-12T10:12:02;14.50;99.90
52495;DHT22;38405;53.212;5.660;2023-04-12T10:14:29;14.30;99.90
52495;DHT22;38405;53.212;5.660;2023-04-12T10:16:56;14.10;99.90
52495;DHT22;38405;53.212;5.660;2023-04-12T10:19:25;14.00;99.90
52495;DHT22;38405;53.212;5.660;2023-04-12T10:21:51;13.90;99.90
52495;DHT22;38405;53.212;5.660;2023-04-12T10:24:17;13.50;99.90
52495;DHT22;38405;53.212;5.660;2023-04-12T10:26:42;13.30;99.90
52495;DHT22;38405;53.212;5.660;2023-04-12T10:29:28;13.10;99.90
52495;DHT22;38405;53.212;5.660;2023-04-12T10:32:21;13.00;99.90
52495;DHT22;38405;53.212;5.660;2023-04-12T10:34:54;12.80;99.90
52495;DHT22;38405;53.212;5.660;2023-04-12T10:37:21;12.80;99.90
52495;DHT22;38405;53.212;5.660;2023-04-12T10:39:53;13.00;99.90
52495;DHT22;38405;53.212;5.660;2023-04-12T10:42:24;13.30;99.90
52495;DHT22;38405;53.212;5.660;2023-04-12T10:44:56;13.60;99.90
52495;DHT22;38405;53.212;5.660;2023-04-12T10:50:23;13.70;99.90
52495;DHT22;38405;53.212;5.660;2023-04-12T10:55:40;13.70;99.90
52495;DHT22;38405;53.212;5.660;2023-04-12T10:58:07;13.70;99.90
52495;DHT22;38405;53.212;5.660;2023-04-12T11:03:21;13.80;99.90
52495;DHT22;38405;53.212;5.660;2023-04-12T11:05:57;13.70;99.90
52495;DHT22;38405;53.212;5.660;2023-04-12T11:08:30;13.80;99.90
52495;DHT22;38405;53.212;5.660;2023-04-12T11:11:04;14.00;99.90
52495;DHT22;38405;53.212;5.660;2023-04-12T11:13:34;14.20;99.90
52495;DHT22;38405;53.212;5.660;2023-04-12T11:16:02;14.10;99.90
52495;DHT22;38405;53.212;5.660;2023-04-12T11:18:28;14.20;99.90
52495;DHT22;38405;53.212;5.660;2023-04-12T11:20:56;14.70;99.90
52495;DHT22;38405;53.212;5.660;2023-04-12T11:23:23;15.00;99.90
52495;DHT22;38405;53.212;5.660;2023-04-12T11:25:50;15.40;99.90
52495;DHT22;38405;53.212;5.660;2023-04-12T11:28:17;15.60;99.90
52495;DHT22;38405;53.212;5.660;2023-04-12T11:30:56;15.50;99.90
52495;DHT22;38405;53.212;5.660;2023-04-12T11:33:34;15.30;99.90
52495;DHT22;38405;53.212;5.660;2023-04-12T11:36:05;14.90;99.90
52495;DHT22;38405;53.212;5.660;2023-04-12T11:38:33;14.70;99.90
52495;DHT22;38405;53.212;5.660;2023-04-12T11:40:59;14.80;99.90
52495;DHT22;38405;53.212;5.660;2023-04-12T11:43:25;14.90;99.90
52495;DHT22;38405;53.212;5.660;2023-04-12T11:45:58;15.10;99.90
52495;DHT22;38405;53.212;5.660;2023-04-12T11:48:27;15.40;99.90
52495;DHT22;38405;53.212;5.660;2023-04-12T11:50:53;15.30;99.90
52495;DHT22;38405;53.212;5.660;2023-04-12T11:53:26;15.20;99.90
52495;DHT22;38405;53.212;5.660;2023-04-12T11:55:55;15.30;99.90
52495;DHT22;38405;53.212;5.660;2023-04-12T11:58:22;15.50;99.90
52495;DHT22;38405;53.212;5.660;2023-04-12T12:00:49;15.20;99.90
52495;DHT22;38405;53.212;5.660;2023-04-12T12:03:15;15.00;99.90
52495;DHT22;38405;53.212;5.660;2023-04-12T12:05:41;14.70;99.90
52495;DHT22;38405;53.212;5.660;2023-04-12T12:08:07;14.60;99.90
52495;DHT22;38405;53.212;5.660;2023-04-12T12:10:37;14.60;99.90
52495;DHT22;38405;53.212;5.660;2023-04-12T12:13:11;14.70;99.90
52495;DHT22;38405;53.212;5.660;2023-04-12T12:15:36;14.90;99.90
52495;DHT22;38405;53.212;5.660;2023-04-12T12:18:02;14.70;99.90
52495;DHT22;38405;53.212;5.660;2023-04-12T12:20:32;14.20;99.90
52495;DHT22;38405;53.212;5.660;2023-04-12T12:23:03;14.10;99.90
52495;DHT22;38405;53.212;5.660;2023-04-12T12:25:28;14.10;99.90
52495;DHT22;38405;53.212;5.660;2023-04-12T12:27:56;14.20;99.90
52495;DHT22;38405;53.212;5.660;2023-04-12T12:30:22;14.20;99.90
52495;DHT22;38405;53.212;5.660;2023-04-12T12:32:52;14.00;99.90
52495;DHT22;38405;53.212;5.660;2023-04-12T12:35:17;14.10;99.90
52495;DHT22;38405;53.212;5.660;2023-04-12T12:37:52;14.20;99.90
52495;DHT22;38405;53.212;5.660;2023-04-12T12:40:28;14.30;99.90
52495;DHT22;38405;53.212;5.660;2023-04-12T12:42:56;14.20;99.90
52495;DHT22;38405;53.212;5.660;2023-04-12T12:45:24;14.00;99.90
52495;DHT22;38405;53.212;5.660;2023-04-12T12:47:56;13.60;99.90
52495;DHT22;38405;53.212;5.660;2023-04-12T12:50:28;13.40;99.90
52495;DHT22;38405;53.212;5.660;2023-04-12T12:52:54;13.50;99.90
52495;DHT22;38405;53.212;5.660;2023-04-12T12:55:21;13.60;99.90
52495;DHT22;38405;53.212;5.660;2023-04-12T12:57:48;13.50;99.90
52495;DHT22;38405;53.212;5.660;2023-04-12T13:00:14;13.40;99.90
52495;DHT22;38405;53.212;5.660;2023-04-12T13:02:41;13.20;99.90
52495;DHT22;38405;53.212;5.660;2023-04-12T13:05:08;13.20;99.90
52495;DHT22;38405;53.212;5.660;2023-04-12T13:07:34;13.20;99.90
52495;DHT22;38405;53.212;5.660;2023-04-12T13:10:00;13.40;99.90
52495;DHT22;38405;53.212;5.660;2023-04-12T13:12:26;13.70;99.90
52495;DHT22;38405;53.212;5.660;2023-04-12T13:14:51;13.90;99.90
52495;DHT22;38405;53.212;5.660;2023-04-12T13:17:18;13.70;99.90
52495;DHT22;38405;53.212;5.660;2023-04-12T13:19:47;13.60;99.90
52495;DHT22;38405;53.212;5.660;2023-04-12T13:22:13;13.50;99.90
52495;DHT22;38405;53.212;5.660;2023-04-12T13:24:39;13.50;99.90
52495;DHT22;38405;53.212;5.660;2023-04-12T13:27:04;13.50;99.90
52495;DHT22;38405;53.212;5.660;2023-04-12T13:29:30;13.50;99.90
52495;DHT22;38405;53.212;5.660;2023-04-12T13:31:56;13.50;99.90
52495;DHT22;38405;53.212;5.660;2023-04-12T13:34:22;13.30;99.90
52495;DHT22;38405;53.212;5.660;2023-04-12T13:36:50;13.20;99.90
52495;DHT22;38405;53.212;5.660;2023-04-12T13:39:16;13.00;99.90
52495;DHT22;38405;53.212;5.660;2023-04-12T13:41:42;12.90;99.90
52495;DHT22;38405;53.212;5.660;2023-04-12T13:44:07;12.80;99.90
52495;DHT22;38405;53.212;5.660;2023-04-12T13:46:33;12.70;99.90
52495;DHT22;38405;53.212;5.660;2023-04-12T13:48:58;12.70;99.90
52495;DHT22;38405;53.212;5.660;2023-04-12T13:51:24;12.60;99.90
52495;DHT22;38405;53.212;5.660;2023-04-12T13:53:55;12.70;99.90
52495;DHT22;38405;53.212;5.660;2023-04-12T13:56:21;12.90;99.90
52495;DHT22;38405;53.212;5.660;2023-04-12T13:58:47;13.10;99.90
52495;DHT22;38405;53.212;5.660;2023-04-12T14:01:13;13.20;99.90
52495;DHT22;38405;53.212;5.660;2023-04-12T14:03:39;13.10;99.90
52495;DHT22;38405;53.212;5.660;2023-04-12T14:06:05;13.00;99.90
52495;DHT22;38405;53.212;5.660;2023-04-12T14:08:37;12.70;99.90
52495;DHT22;38405;53.212;5.660;2023-04-12T14:11:03;12.50;99.90
52495;DHT22;38405;53.212;5.660;2023-04-12T14:13:29;12.30;99.90
52495;DHT22;38405;53.212;5.660;2023-04-12T14:15:55;12.10;99.90
52495;DHT22;38405;53.212;5.660;2023-04-12T14:18:24;12.10;99.90
52495;DHT22;38405;53.212;5.660;2023-04-12T14:20:53;12.20;99.90
52495;DHT22;38405;53.212;5.660;2023-04-12T14:23:22;11.80;99.90
52495;DHT22;38405;53.212;5.660;2023-04-12T14:25:50;11.70;99.90
52495;DHT22;38405;53.212;5.660;2023-04-12T14:28:16;11.60;99.90
52495;DHT22;38405;53.212;5.660;2023-04-12T14:30:43;11.50;99.90
52495;DHT22;38405;53.212;5.660;2023-04-12T14:33:08;11.40;99.90
52495;DHT22;38405;53.212;5.660;2023-04-12T14:35:35;11.60;99.90
52495;DHT22;38405;53.212;5.660;2023-04-12T14:38:01;11.90;99.90
52495;DHT22;38405;53.212;5.660;2023-04-12T14:40:26;12.20;99.90
52495;DHT22;38405;53.212;5.660;2023-04-12T14:42:58;12.50;99.90
52495;DHT22;38405;53.212;5.660;2023-04-12T14:45:24;13.00;99.90
52495;DHT22;38405;53.212;5.660;2023-04-12T14:47:51;13.20;99.90
52495;DHT22;38405;53.212;5.660;2023-04-12T14:50:17;13.20;99.90
52495;DHT22;38405;53.212;5.660;2023-04-12T14:52:42;13.20;99.90
52495;DHT22;38405;53.212;5.660;2023-04-12T14:55:08;13.30;99.90
52495;DHT22;38405;53.212;5.660;2023-04-12T14:57:35;13.50;99.90
52495;DHT22;38405;53.212;5.660;2023-04-12T15:00:01;13.50;99.90
52495;DHT22;38405;53.212;5.660;2023-04-12T15:02:26;13.60;99.90
52495;DHT22;38405;53.212;5.660;2023-04-12T15:04:52;13.70;99.90
52495;DHT22;38405;53.212;5.660;2023-04-12T15:07:18;13.60;99.90
52495;DHT22;38405;53.212;5.660;2023-04-12T15:09:44;13.30;99.90
52495;DHT22;38405;53.212;5.660;2023-04-12T15:12:10;13.00;99.90
52495;DHT22;38405;53.212;5.660;2023-04-12T15:14:35;12.60;99.90
52495;DHT22;38405;53.212;5.660;2023-04-12T15:17:01;12.50;99.90
52495;DHT22;38405;53.212;5.660;2023-04-12T15:19:27;12.60;99.90
52495;DHT22;38405;53.212;5.660;2023-04-12T15:21:53;12.70;99.90
52495;DHT22;38405;53.212;5.660;2023-04-12T15:24:22;12.90;99.90
52495;DHT22;38405;53.212;5.660;2023-04-12T15:26:49;12.90;99.90
52495;DHT22;38405;53.212;5.660;2023-04-12T15:29:16;12.90;99.90
52495;DHT22;38405;53.212;5.660;2023-04-12T15:31:42;12.90;99.90
52495;DHT22;38405;53.212;5.660;2023-04-12T15:34:08;12.80;99.90
52495;DHT22;38405;53.212;5.660;2023-04-12T15:36:36;12.80;99.90
52495;DHT22;38405;53.212;5.660;2023-04-12T15:39:05;12.70;99.90
52495;DHT22;38405;53.212;5.660;2023-04-12T15:41:35;12.30;99.90
52495;DHT22;38405;53.212;5.660;2023-04-12T15:44:07;12.10;99.90
52495;DHT22;38405;53.212;5.660;2023-04-12T15:46:33;11.90;99.90
52495;DHT22;38405;53.212;5.660;2023-04-12T15:49:00;11.70;99.90
52495;DHT22;38405;53.212;5.660;2023-04-12T15:51:27;11.70;99.90
52495;DHT22;38405;53.212;5.660;2023-04-12T15:53:54;11.70;99.90
52495;DHT22;38405;53.212;5.660;2023-04-12T15:56:20;11.60;99.90
52495;DHT22;38405;53.212;5.660;2023-04-12T15:58:56;11.50;99.90
52495;DHT22;38405;53.212;5.660;2023-04-12T16:01:22;11.40;99.90